Aeroporto :
LOGIN :

Iscrizione | Disclaimer

   EN    FR    IT 

 










Sommario :    VFR   VFR Marginale   IFR   IFR Intensivo   IFR Molto Intensivo
Visibilità : 
Base nubi : 
>= 8 km
>= 3000ft
5 / 8 km
1000 / 3000 ft
1500m / 5 km
500 / 1000 ft
800 / 1500m
200 / 500 ft
< 800m
< 200 ft
Simboli :   Temporali  Nebbia  Neve Forte  Precipitazioni Forti  Vento > 20 kt
SIGMETs :   Varie  Temporali  Ghiacco  Turbolenza  Onda orograficha  Ceneri Vulcaniche






- Altitudine del aeroporto : 32 ft
- Codice IATA : LKZ


EGUL - RAF Lakenheath

ULTIMO METAR :
  • 071356Z AUTO 00000KT 9999 CLR 19/04 A3037 RMK AO2 SLP288 T01860036 $

METARs OBSOLETI :
  • 071256Z AUTO 00000KT 9999 CLR 19/04 A3038 RMK AO2 SLP291 T01890035 $
  • 071156Z AUTO 00000KT 9999 CLR 18/04 A3039 RMK AO2 SLP295 T01810039 10184 20003 58009 $

TAF TAF EGUL
Valido dal 07 a 14 ore il 08 a 20 ore UTC


071400Z 0714/0820 13009KT 9999 FEW050 QNH3034INS
BECMG 0717/0718 13009KT 9999 SKC QNH3025INS
BECMG 0803/0804 11006KT 6000 BR SCT020 QNH3023INS
BECMG 0808/0809 05009KT 9999 NSW SCT030 BKN060 QNH3023INS
BECMG 0813/0814 14006KT 9999 BKN030 QNH3022INS TX19/0714Z TN06/0805Z



MetMap, La meteo Aeronautica in un colpo d'occhio ! - Copyright ORBIFLY Dicembre 2007 - Disclaimer

ORBIFLY MET'MAP TEAM :

Programmazione e sviluppo : Alexandra Zaïnal
Concezione : Baudouin d'Aumeries
Aiuto per la programmazione : Marc-Olivier Méhu
Supporto tecnico e logistico : Manuel Goepfert
Aiuto per la traduzione : Arnaldo La Scala

Contatto : metmap@orbifly.com




FONTI E CREDITI :

   NOAA